createdAt,value
2017-12-11T00:01:32.366Z,94.80
2017-12-11T00:03:59.960Z,94.70
2017-12-11T00:06:27.571Z,94.80
2017-12-11T00:08:55.154Z,94.60
2017-12-11T00:11:22.898Z,94.80
2017-12-11T00:13:50.490Z,94.70
2017-12-11T00:16:18.074Z,94.60
2017-12-11T00:18:45.702Z,94.60
2017-12-11T00:21:13.321Z,94.80
2017-12-11T00:23:40.953Z,94.70
2017-12-11T00:26:08.551Z,94.60
2017-12-11T00:28:36.143Z,94.70
2017-12-11T00:31:04.509Z,94.80
2017-12-11T00:33:32.106Z,94.80
2017-12-11T00:35:59.673Z,94.60
2017-12-11T00:38:27.362Z,94.60
2017-12-11T00:40:54.955Z,94.40
2017-12-11T00:43:22.536Z,94.60
2017-12-11T00:45:50.262Z,94.70
2017-12-11T00:48:17.830Z,94.60
2017-12-11T00:50:45.397Z,94.60
2017-12-11T00:53:12.996Z,94.60
2017-12-11T00:55:40.603Z,94.90
2017-12-11T00:58:08.185Z,94.90
2017-12-11T01:00:35.770Z,94.60
2017-12-11T01:03:03.371Z,94.70
2017-12-11T01:05:30.938Z,94.80
2017-12-11T01:07:58.545Z,94.90
2017-12-11T01:10:26.123Z,94.70
2017-12-11T01:12:54.482Z,94.60
2017-12-11T01:15:22.082Z,94.50
2017-12-11T01:17:50.286Z,94.50
2017-12-11T01:20:17.862Z,94.50
2017-12-11T01:22:45.491Z,94.50
2017-12-11T01:25:13.071Z,94.60
2017-12-11T01:27:41.414Z,94.80
2017-12-11T01:30:09.014Z,94.70
2017-12-11T01:32:36.596Z,94.60
2017-12-11T01:35:04.191Z,94.60
2017-12-11T01:37:32.543Z,94.80
2017-12-11T01:40:00.129Z,94.70
2017-12-11T01:42:28.487Z,94.90
2017-12-11T01:44:56.848Z,94.70
2017-12-11T01:47:25.191Z,94.70
2017-12-11T01:49:52.847Z,94.70
2017-12-11T01:52:21.177Z,94.80
2017-12-11T01:54:48.766Z,94.80
2017-12-11T01:57:16.345Z,94.70
2017-12-11T01:59:43.962Z,94.90
2017-12-11T02:02:11.551Z,94.90
2017-12-11T02:04:39.878Z,95.00
2017-12-11T02:07:07.468Z,95.10
2017-12-11T02:09:35.916Z,95.10
2017-12-11T02:12:03.494Z,95.40
2017-12-11T02:14:31.102Z,95.20
2017-12-11T02:16:58.681Z,94.90
2017-12-11T02:19:26.271Z,94.80
2017-12-11T02:21:53.853Z,94.70
2017-12-11T02:24:22.216Z,94.80
2017-12-11T02:26:50.565Z,94.60
2017-12-11T02:29:19.018Z,94.60
2017-12-11T02:31:46.586Z,94.60
2017-12-11T02:34:14.183Z,94.90
2017-12-11T02:36:41.782Z,95.00
2017-12-11T02:39:09.365Z,95.00
2017-12-11T02:41:36.953Z,95.30
2017-12-11T02:44:04.551Z,95.60
2017-12-11T02:46:32.904Z,95.90
2017-12-11T02:49:00.497Z,95.80
2017-12-11T02:51:28.091Z,95.90
2017-12-11T02:53:55.670Z,95.90
2017-12-11T02:56:23.266Z,96.00
2017-12-11T02:58:51.618Z,96.20
2017-12-11T03:01:19.465Z,96.20
2017-12-11T03:03:47.077Z,96.30
2017-12-11T03:06:14.647Z,96.10
2017-12-11T03:08:42.257Z,96.00
2017-12-11T03:11:09.850Z,95.90
2017-12-11T03:13:38.210Z,95.90
2017-12-11T03:16:05.815Z,95.80
2017-12-11T03:18:33.412Z,95.80
2017-12-11T03:21:01.013Z,95.50
2017-12-11T03:23:29.429Z,95.20
2017-12-11T03:25:57.023Z,95.20
2017-12-11T03:28:24.626Z,95.20
2017-12-11T03:30:52.229Z,95.20
2017-12-11T03:33:19.808Z,95.10
2017-12-11T03:35:47.410Z,95.30
2017-12-11T03:38:15.025Z,95.20
2017-12-11T03:40:42.637Z,95.20
2017-12-11T03:43:10.979Z,95.30
2017-12-11T03:45:39.331Z,95.80
2017-12-11T03:48:06.904Z,95.70
2017-12-11T03:50:34.508Z,95.70
2017-12-11T03:53:02.077Z,95.90
2017-12-11T03:55:29.676Z,96.10
2017-12-11T03:57:57.280Z,95.80
2017-12-11T04:00:24.896Z,95.60
2017-12-11T04:02:52.481Z,95.50
2017-12-11T04:05:20.854Z,95.60
2017-12-11T04:07:49.229Z,95.50
2017-12-11T04:10:17.693Z,95.20
2017-12-11T04:12:45.282Z,95.20
2017-12-11T04:15:13.651Z,95.20
2017-12-11T04:17:42.014Z,95.40
2017-12-11T04:20:09.589Z,95.30
2017-12-11T04:22:37.953Z,94.80
2017-12-11T04:25:05.595Z,94.80
2017-12-11T04:27:33.202Z,95.40
2017-12-11T04:30:01.553Z,95.30
2017-12-11T04:32:29.166Z,95.30
2017-12-11T04:34:56.748Z,95.10
2017-12-11T04:37:25.113Z,95.60
2017-12-11T04:39:52.703Z,95.60
2017-12-11T04:42:20.319Z,96.40
2017-12-11T04:44:47.918Z,96.00
2017-12-11T04:47:15.525Z,95.90
2017-12-11T04:49:43.145Z,96.60
2017-12-11T04:52:10.798Z,96.30
2017-12-11T04:54:38.394Z,95.70
2017-12-11T04:57:06.733Z,95.40
2017-12-11T04:59:34.326Z,95.40
2017-12-11T05:02:02.675Z,95.30
2017-12-11T05:04:30.257Z,95.30
2017-12-11T05:06:57.894Z,95.40
2017-12-11T05:09:25.482Z,95.60
2017-12-11T05:11:53.097Z,95.60
2017-12-11T05:14:21.442Z,96.50
2017-12-11T05:16:49.803Z,96.30
2017-12-11T05:19:18.149Z,96.20
2017-12-11T05:21:45.734Z,96.10
2017-12-11T05:24:13.309Z,96.10
2017-12-11T05:26:41.633Z,96.00
2017-12-11T05:29:09.235Z,96.00
2017-12-11T05:31:37.574Z,96.10
2017-12-11T05:34:05.202Z,96.00
2017-12-11T05:36:32.819Z,95.80
2017-12-11T05:39:00.410Z,95.70
2017-12-11T05:41:28.780Z,95.20
2017-12-11T05:43:57.218Z,96.10
2017-12-11T05:46:24.846Z,96.10
2017-12-11T05:48:52.518Z,96.70
2017-12-11T05:51:20.122Z,97.20
2017-12-11T05:53:47.737Z,97.20
2017-12-11T05:56:15.333Z,97.20
2017-12-11T05:58:42.948Z,97.10
2017-12-11T06:01:10.530Z,97.40
2017-12-11T06:03:38.142Z,97.20
2017-12-11T06:06:05.720Z,97.50
2017-12-11T06:08:33.355Z,97.90
2017-12-11T06:11:01.713Z,97.30
2017-12-11T06:13:29.334Z,97.30
2017-12-11T06:15:56.912Z,97.00
2017-12-11T06:18:24.516Z,97.00
2017-12-11T06:20:52.881Z,97.00
2017-12-11T06:23:20.492Z,97.10
2017-12-11T06:25:48.078Z,96.70
2017-12-11T06:28:16.426Z,97.30
2017-12-11T06:30:44.019Z,97.30
2017-12-11T06:33:11.602Z,97.60
2017-12-11T06:35:39.202Z,97.10
2017-12-11T06:38:06.821Z,97.50
2017-12-11T06:40:34.424Z,97.40
2017-12-11T06:43:02.008Z,97.20
2017-12-11T06:45:29.679Z,97.30
2017-12-11T06:47:57.259Z,97.00
2017-12-11T06:50:24.877Z,97.20
2017-12-11T06:52:52.461Z,97.70
2017-12-11T06:55:20.079Z,98.10
2017-12-11T06:57:47.693Z,98.10
2017-12-11T07:00:15.305Z,97.90
2017-12-11T07:02:42.905Z,97.90
2017-12-11T07:05:10.511Z,98.30
2017-12-11T07:07:38.884Z,97.60
2017-12-11T07:10:07.236Z,98.00
2017-12-11T07:12:36.376Z,98.20
2017-12-11T07:15:03.990Z,98.20
2017-12-11T07:17:31.633Z,97.90
2017-12-11T07:19:59.257Z,97.60
2017-12-11T07:22:26.863Z,97.80
2017-12-11T07:24:54.458Z,97.80
2017-12-11T07:27:22.940Z,97.70
2017-12-11T07:29:51.322Z,97.40
2017-12-11T07:32:19.685Z,97.10
2017-12-11T07:34:47.274Z,97.10
2017-12-11T07:37:14.902Z,97.00
2017-12-11T07:39:42.489Z,96.60
2017-12-11T07:42:11.063Z,96.30
2017-12-11T07:44:39.422Z,96.60
2017-12-11T07:47:07.031Z,96.50
2017-12-11T07:49:34.630Z,96.90
2017-12-11T07:52:02.244Z,97.50
2017-12-11T07:54:29.834Z,97.20
2017-12-11T07:56:57.419Z,97.10
2017-12-11T07:59:25.043Z,97.50
2017-12-11T08:01:53.398Z,97.30
2017-12-11T08:04:21.005Z,97.30
2017-12-11T08:06:48.586Z,96.90
2017-12-11T08:09:16.201Z,97.00
2017-12-11T08:11:43.781Z,96.50
2017-12-11T08:14:11.412Z,97.50
2017-12-11T08:16:39.002Z,97.60
2017-12-11T08:19:06.631Z,97.90
2017-12-11T08:21:34.273Z,97.80
2017-12-11T08:24:02.641Z,97.40
2017-12-11T08:26:31.100Z,97.80
2017-12-11T08:28:59.484Z,97.80
2017-12-11T08:31:27.068Z,97.80
2017-12-11T08:33:54.669Z,97.60
2017-12-11T08:36:22.279Z,97.60
2017-12-11T08:38:50.663Z,98.00
2017-12-11T08:41:19.022Z,97.90
2017-12-11T08:43:46.642Z,97.90
2017-12-11T08:46:14.245Z,97.90
2017-12-11T08:48:41.839Z,97.90
2017-12-11T08:51:09.436Z,98.30
2017-12-11T08:53:37.058Z,97.90
2017-12-11T08:56:04.850Z,97.60
2017-12-11T08:58:32.478Z,97.60
2017-12-11T09:01:00.092Z,97.60
2017-12-11T09:03:28.454Z,97.30
2017-12-11T09:05:56.045Z,97.60
2017-12-11T09:08:24.395Z,97.00
2017-12-11T09:10:51.990Z,97.00
2017-12-11T09:13:19.570Z,96.00
2017-12-11T09:15:47.967Z,96.20
2017-12-11T09:18:15.541Z,96.20
2017-12-11T09:20:43.195Z,96.30
2017-12-11T09:23:10.781Z,96.40
2017-12-11T09:25:38.370Z,96.00
2017-12-11T09:28:06.748Z,96.00
2017-12-11T09:30:34.330Z,96.00
2017-12-11T09:33:02.731Z,95.90
2017-12-11T09:35:30.376Z,95.90
2017-12-11T09:37:57.990Z,96.30
2017-12-11T09:40:25.563Z,96.10
2017-12-11T09:42:53.166Z,95.60
2017-12-11T09:45:20.797Z,95.50
2017-12-11T09:47:49.411Z,96.10
2017-12-11T09:50:16.989Z,96.10
2017-12-11T09:52:44.573Z,95.80
2017-12-11T09:55:12.166Z,95.50
2017-12-11T09:57:40.535Z,95.20
2017-12-11T10:00:08.917Z,94.80
2017-12-11T10:02:37.269Z,95.10
2017-12-11T10:05:04.874Z,95.10
2017-12-11T10:07:32.484Z,94.80
2017-12-11T10:10:00.077Z,94.80
2017-12-11T10:12:28.426Z,95.20
2017-12-11T10:14:56.046Z,95.20
2017-12-11T10:17:23.690Z,94.60
2017-12-11T10:19:52.054Z,94.90
2017-12-11T10:22:20.437Z,95.20
2017-12-11T10:24:48.810Z,95.20
2017-12-11T10:27:17.174Z,95.20
2017-12-11T10:29:44.858Z,95.20
2017-12-11T10:32:13.206Z,94.90
2017-12-11T10:34:40.805Z,94.90
2017-12-11T10:37:08.418Z,94.90
2017-12-11T10:39:35.991Z,95.00
2017-12-11T10:42:03.605Z,94.80
2017-12-11T10:44:31.190Z,95.00
2017-12-11T10:46:58.799Z,95.20
2017-12-11T10:49:27.161Z,94.90
2017-12-11T10:51:54.758Z,94.90
2017-12-11T10:54:22.355Z,94.90
2017-12-11T10:56:49.941Z,95.90
2017-12-11T10:59:17.549Z,95.30
2017-12-11T11:01:45.189Z,95.30
2017-12-11T11:04:12.790Z,94.80
2017-12-11T11:06:40.366Z,94.20
2017-12-11T11:09:07.999Z,94.60
2017-12-11T11:11:35.593Z,94.70
2017-12-11T11:14:03.197Z,94.20
2017-12-11T11:16:30.769Z,94.40
2017-12-11T11:18:58.410Z,94.50
2017-12-11T11:24:01.424Z,94.50
2017-12-11T11:26:29.006Z,94.50
2017-12-11T11:28:56.613Z,94.30
2017-12-11T11:31:25.044Z,94.80
2017-12-11T11:33:52.662Z,94.20
2017-12-11T11:36:20.241Z,94.60
2017-12-11T11:38:47.877Z,94.30
2017-12-11T11:41:16.256Z,94.20
2017-12-11T11:43:44.639Z,94.10
2017-12-11T11:46:13.142Z,94.50
2017-12-11T11:48:40.729Z,94.50
2017-12-11T11:51:08.680Z,94.60
2017-12-11T11:53:36.270Z,94.80
2017-12-11T11:56:03.873Z,94.60
2017-12-11T11:58:32.223Z,95.30
2017-12-11T12:00:59.809Z,95.30
2017-12-11T12:03:28.151Z,94.40
2017-12-11T12:05:55.764Z,94.30
2017-12-11T12:08:23.346Z,94.80
2017-12-11T12:10:50.962Z,94.60
2017-12-11T12:13:19.360Z,94.40
2017-12-11T12:15:46.964Z,94.30
2017-12-11T12:18:14.572Z,94.50
2017-12-11T12:20:42.956Z,94.70
2017-12-11T12:23:11.293Z,94.60
2017-12-11T12:25:40.453Z,94.60
2017-12-11T12:28:08.033Z,94.00
2017-12-11T12:30:35.641Z,94.10
2017-12-11T12:33:03.994Z,94.60
2017-12-11T12:35:31.599Z,94.60
2017-12-11T12:37:59.239Z,94.40
2017-12-11T12:40:27.576Z,94.80
2017-12-11T12:42:55.183Z,94.80
2017-12-11T12:45:23.521Z,94.60
2017-12-11T12:47:51.119Z,94.50
2017-12-11T12:50:19.516Z,94.60
2017-12-11T12:52:47.130Z,94.50
2017-12-11T12:55:14.751Z,94.60
2017-12-11T12:57:42.350Z,93.80
2017-12-11T13:00:09.963Z,94.40
2017-12-11T13:02:37.578Z,94.10
2017-12-11T13:05:05.211Z,94.10
2017-12-11T13:07:32.818Z,94.50
2017-12-11T13:10:01.196Z,93.50
2017-12-11T13:12:29.619Z,93.70
2017-12-11T13:14:57.234Z,93.70
2017-12-11T13:17:25.596Z,94.10
2017-12-11T13:19:53.198Z,94.10
2017-12-11T13:22:20.786Z,94.20
2017-12-11T13:24:48.395Z,94.40
2017-12-11T13:27:16.754Z,94.00
2017-12-11T13:29:44.342Z,94.00
2017-12-11T13:32:12.738Z,93.10
2017-12-11T13:34:40.325Z,93.10
2017-12-11T13:37:08.002Z,93.50
2017-12-11T13:39:35.603Z,93.50
2017-12-11T13:42:03.944Z,93.20
2017-12-11T13:44:31.563Z,93.20
2017-12-11T13:46:59.170Z,93.00
2017-12-11T13:49:26.743Z,93.60
2017-12-11T13:51:54.365Z,93.30
2017-12-11T13:54:21.964Z,91.70
2017-12-11T13:56:50.384Z,92.00
2017-12-11T13:59:18.009Z,92.00
2017-12-11T14:01:46.549Z,91.90
2017-12-11T14:04:14.158Z,92.10
2017-12-11T14:06:42.516Z,93.40
2017-12-11T14:09:10.870Z,92.50
2017-12-11T14:11:38.484Z,92.40
2017-12-11T14:14:06.866Z,91.40
2017-12-11T14:16:34.459Z,91.40
2017-12-11T14:19:02.095Z,91.80
2017-12-11T14:21:29.693Z,92.40
2017-12-11T14:23:57.322Z,92.40
2017-12-11T14:26:24.911Z,92.70
2017-12-11T14:28:52.526Z,92.20
2017-12-11T14:31:20.867Z,92.00
2017-12-11T14:33:48.442Z,92.00
2017-12-11T14:36:16.810Z,93.00
2017-12-11T14:38:44.491Z,93.00
2017-12-11T14:41:12.902Z,93.10
2017-12-11T14:43:40.490Z,93.10
2017-12-11T14:46:08.077Z,93.50
2017-12-11T14:48:35.657Z,93.20
2017-12-11T14:51:04.017Z,92.70
2017-12-11T14:53:31.615Z,92.70
2017-12-11T14:55:59.287Z,93.30
2017-12-11T14:58:26.916Z,93.50
2017-12-11T15:00:55.292Z,93.50
2017-12-11T15:03:23.639Z,93.20
2017-12-11T15:05:51.334Z,93.20
2017-12-11T15:08:19.683Z,94.10
2017-12-11T15:10:47.266Z,94.00
2017-12-11T15:13:15.656Z,93.90
2017-12-11T15:15:44.009Z,93.60
2017-12-11T15:18:13.422Z,93.60
2017-12-11T15:20:41.805Z,93.80
2017-12-11T15:23:10.183Z,93.80
2017-12-11T15:25:38.545Z,94.20
2017-12-11T15:28:06.152Z,94.20
2017-12-11T15:30:33.755Z,94.00
2017-12-11T15:33:01.365Z,94.10
2017-12-11T15:35:28.958Z,94.40
2017-12-11T15:37:56.574Z,94.90
2017-12-11T15:40:24.151Z,94.60
2017-12-11T15:42:51.774Z,94.50
2017-12-11T15:45:20.125Z,93.80
2017-12-11T15:47:47.879Z,93.80
2017-12-11T15:50:15.486Z,94.00
2017-12-11T15:52:43.861Z,94.40
2017-12-11T15:55:12.210Z,94.20
2017-12-11T15:57:39.797Z,94.20
2017-12-11T16:00:08.157Z,94.30
2017-12-11T16:02:35.767Z,94.30
2017-12-11T16:05:04.155Z,94.40
2017-12-11T16:07:31.750Z,94.40
2017-12-11T16:09:59.374Z,94.50
2017-12-11T16:12:27.035Z,94.30
2017-12-11T16:14:54.662Z,94.00
2017-12-11T16:17:22.994Z,94.20
2017-12-11T16:19:50.606Z,94.20
2017-12-11T16:22:18.942Z,94.90
2017-12-11T16:24:46.570Z,94.90
2017-12-11T16:27:14.156Z,94.50
2017-12-11T16:29:41.773Z,94.70
2017-12-11T16:32:09.347Z,94.60
2017-12-11T16:34:36.933Z,94.40
2017-12-11T16:37:04.546Z,94.70
2017-12-11T16:39:32.903Z,95.00
2017-12-11T16:42:01.299Z,95.20
2017-12-11T16:44:29.674Z,95.00
2017-12-11T16:46:58.063Z,94.70
2017-12-11T16:49:26.420Z,94.90
2017-12-11T16:51:54.170Z,94.80
2017-12-11T16:54:21.753Z,94.90
2017-12-11T16:56:50.133Z,94.90
2017-12-11T16:59:17.730Z,94.90
2017-12-11T17:01:45.348Z,95.20
2017-12-11T17:04:12.940Z,95.40
2017-12-11T17:06:40.579Z,95.50
2017-12-11T17:09:08.947Z,94.60
2017-12-11T17:11:37.339Z,94.80
2017-12-11T17:14:04.929Z,94.70
2017-12-11T17:16:32.629Z,95.30
2017-12-11T17:19:00.224Z,95.20
2017-12-11T17:21:27.838Z,95.20
2017-12-11T17:23:55.434Z,95.20
2017-12-11T17:26:23.793Z,95.00
2017-12-11T17:28:51.410Z,95.00
2017-12-11T17:31:19.001Z,95.00
2017-12-11T17:33:46.631Z,94.60
2017-12-11T17:36:14.241Z,95.10
2017-12-11T17:38:42.001Z,95.30
2017-12-11T17:41:09.611Z,95.10
2017-12-11T17:43:37.218Z,94.90
2017-12-11T17:46:04.815Z,94.80
2017-12-11T17:48:33.251Z,95.50
2017-12-11T17:51:00.893Z,95.40
2017-12-11T17:53:28.571Z,95.60
2017-12-11T17:55:56.165Z,95.40
2017-12-11T17:58:24.539Z,94.30
2017-12-11T18:00:52.898Z,94.50
2017-12-11T18:03:20.610Z,94.50
2017-12-11T18:05:48.222Z,94.80
2017-12-11T18:08:15.836Z,95.00
2017-12-11T18:10:43.441Z,95.40
2017-12-11T18:13:11.059Z,95.20
2017-12-11T18:15:38.655Z,95.10
2017-12-11T18:18:06.253Z,95.20
2017-12-11T18:20:33.908Z,95.00
2017-12-11T18:23:02.280Z,94.70
2017-12-11T18:25:30.667Z,94.70
2017-12-11T18:27:59.056Z,94.80
2017-12-11T18:30:26.703Z,95.10
2017-12-11T18:32:55.102Z,95.20
2017-12-11T18:35:22.735Z,95.20
2017-12-11T18:37:51.967Z,94.80
2017-12-11T18:40:19.580Z,94.80
2017-12-11T18:42:47.168Z,94.90
2017-12-11T18:45:14.862Z,94.90
2017-12-11T18:47:42.451Z,94.70
2017-12-11T18:50:10.072Z,95.00
2017-12-11T18:52:37.760Z,94.90
2017-12-11T18:55:05.387Z,94.90
2017-12-11T18:57:33.010Z,94.90
2017-12-11T19:00:00.643Z,94.80
2017-12-11T19:02:28.266Z,94.70
2017-12-11T19:04:55.870Z,94.60
2017-12-11T19:07:23.539Z,94.40
2017-12-11T19:09:51.154Z,94.80
2017-12-11T19:12:19.147Z,94.90
2017-12-11T19:14:46.740Z,94.60
2017-12-11T19:17:14.338Z,94.60
2017-12-11T19:19:42.718Z,94.90
2017-12-11T19:22:10.647Z,94.80
2017-12-11T19:24:38.282Z,94.80
2017-12-11T19:27:06.649Z,94.90
2017-12-11T19:29:34.260Z,94.90
2017-12-11T19:32:02.643Z,95.10
2017-12-11T19:34:31.020Z,95.40
2017-12-11T19:36:58.609Z,95.40
2017-12-11T19:39:26.244Z,95.30
2017-12-11T19:41:54.613Z,95.40
2017-12-11T19:44:22.242Z,95.40
2017-12-11T19:46:49.854Z,95.30
2017-12-11T19:49:18.347Z,95.80
2017-12-11T19:51:46.011Z,95.80
2017-12-11T19:54:13.701Z,95.60
2017-12-11T19:56:41.332Z,95.30
2017-12-11T19:59:08.982Z,95.50
2017-12-11T20:01:37.426Z,95.60
2017-12-11T20:04:05.038Z,95.60
2017-12-11T20:06:32.702Z,95.50
2017-12-11T20:09:00.314Z,95.40
2017-12-11T20:11:27.943Z,95.50
2017-12-11T20:13:56.332Z,95.20
2017-12-11T20:16:23.978Z,95.20
2017-12-11T20:18:51.578Z,95.50
2017-12-11T20:21:19.977Z,95.50
2017-12-11T20:23:48.351Z,95.50
2017-12-11T20:26:16.745Z,95.60
2017-12-11T20:28:44.374Z,95.40
2017-12-11T20:31:12.074Z,95.30
2017-12-11T20:33:39.674Z,95.70
2017-12-11T20:36:07.282Z,95.40
2017-12-11T20:38:35.697Z,95.90
2017-12-11T20:41:03.302Z,95.90
2017-12-11T20:43:30.923Z,95.90
2017-12-11T20:45:58.544Z,96.00
2017-12-11T20:48:26.931Z,95.90
2017-12-11T20:50:54.534Z,95.90
2017-12-11T20:53:22.277Z,95.80
2017-12-11T20:55:50.177Z,95.90
2017-12-11T20:58:18.104Z,96.00
2017-12-11T21:00:45.993Z,96.00
2017-12-11T21:03:13.879Z,95.80
2017-12-11T21:05:41.814Z,95.90
2017-12-11T21:08:09.765Z,95.70
2017-12-11T21:10:37.636Z,95.80
2017-12-11T21:13:05.518Z,95.70
2017-12-11T21:15:33.426Z,95.60
2017-12-11T21:18:01.321Z,95.50
2017-12-11T21:20:29.197Z,95.50
2017-12-11T21:22:57.856Z,95.60
2017-12-11T21:25:25.771Z,95.60
2017-12-11T21:27:53.676Z,95.50
2017-12-11T21:30:21.583Z,95.40
2017-12-11T21:32:49.486Z,95.60
2017-12-11T21:35:18.189Z,95.80
2017-12-11T21:37:46.083Z,95.80
2017-12-11T21:40:13.978Z,95.60
2017-12-11T21:42:41.907Z,95.50
2017-12-11T21:45:10.610Z,95.70
2017-12-11T21:47:38.512Z,95.70
2017-12-11T21:50:06.410Z,95.60
2017-12-11T21:52:35.057Z,95.50
2017-12-11T21:55:02.715Z,95.50
2017-12-11T21:57:30.300Z,95.40
2017-12-11T21:59:57.901Z,95.60
2017-12-11T22:02:25.490Z,95.60
2017-12-11T22:04:53.099Z,95.70
2017-12-11T22:07:20.715Z,95.60
2017-12-11T22:09:48.355Z,95.80
2017-12-11T22:12:16.719Z,95.50
2017-12-11T22:14:44.305Z,95.50
2017-12-11T22:17:12.671Z,95.60
2017-12-11T22:19:41.019Z,95.50
2017-12-11T22:22:08.657Z,95.50
2017-12-11T22:24:36.267Z,95.70
2017-12-11T22:27:04.653Z,95.70
2017-12-11T22:29:33.005Z,95.50
2017-12-11T22:32:00.615Z,95.50
2017-12-11T22:34:28.186Z,95.40
2017-12-11T22:36:55.765Z,95.30
2017-12-11T22:39:23.403Z,95.40
2017-12-11T22:41:50.975Z,95.30
2017-12-11T22:44:18.586Z,95.40
2017-12-11T22:46:46.939Z,95.40
2017-12-11T22:49:14.554Z,95.40
2017-12-11T22:51:42.150Z,95.40
2017-12-11T22:54:10.565Z,95.50
2017-12-11T22:56:38.923Z,95.40
2017-12-11T22:59:06.536Z,95.30
2017-12-11T23:01:34.127Z,95.20
2017-12-11T23:04:01.785Z,95.00
2017-12-11T23:06:29.375Z,95.20
2017-12-11T23:08:56.986Z,95.20
2017-12-11T23:11:24.582Z,95.10
2017-12-11T23:13:52.186Z,95.10
2017-12-11T23:16:19.774Z,94.40
2017-12-11T23:18:48.255Z,94.40
2017-12-11T23:21:15.843Z,94.40
2017-12-11T23:23:43.446Z,94.30
2017-12-11T23:26:11.037Z,94.60
2017-12-11T23:28:38.642Z,94.80
2017-12-11T23:31:06.999Z,94.80
2017-12-11T23:33:34.596Z,94.80
2017-12-11T23:36:02.946Z,94.60
2017-12-11T23:38:30.566Z,94.50
2017-12-11T23:40:58.163Z,94.80
2017-12-11T23:43:25.746Z,94.30
2017-12-11T23:45:54.109Z,94.50
2017-12-11T23:48:21.685Z,94.50
2017-12-11T23:50:50.055Z,94.60
2017-12-11T23:53:18.417Z,94.70
2017-12-11T23:55:46.034Z,94.30
2017-12-11T23:58:13.618Z,94.20
